Time;durP1;ratioP1;P1;durP2;ratioP2;P2;SDS_P1;SDS_P2;PMS_P1;PMS_P2;Temp;Humidity;BMP_temperature;BMP_pressure;BME280_temperature;BME280_humidity;BME280_pressure;Samples;Min_cycle;Max_cycle;Signal;HPM_P1;HPM_P2
2023/06/26 00:00:13;;;;;;;;;;;20.40;71.00;;;;;;6214098;23;19959;-95
2023/06/26 00:02:39;;;;;;;;;;;20.30;71.20;;;;;;6187625;23;19924;-95
2023/06/26 00:05:05;;;;;;;;;;;20.30;71.10;;;;;;6189114;23;20335;-94
2023/06/26 00:07:34;;;;;;;;;;;20.30;71.20;;;;;;6205555;23;19920;-94
2023/06/26 00:10:00;;;;;;;;;;;20.30;71.40;;;;;;6213862;23;20007;-94
2023/06/26 00:12:26;;;;;;;;;;;20.30;71.20;;;;;;6212334;23;19954;-96
2023/06/26 00:14:52;;;;;;;;;;;20.20;71.00;;;;;;6214087;23;20386;-96
2023/06/26 00:17:18;;;;;;;;;;;20.20;71.10;;;;;;6204688;23;19990;-95
2023/06/26 00:19:43;;;;;;;;;;;20.20;71.20;;;;;;6214050;23;20350;-95
2023/06/26 00:22:09;;;;;;;;;;;20.20;71.30;;;;;;6186501;22;20452;-96
2023/06/26 00:24:35;;;;;;;;;;;20.20;71.50;;;;;;6189543;23;19924;-92
2023/06/26 00:27:03;;;;;;;;;;;20.10;71.40;;;;;;6206295;23;19924;-96
2023/06/26 00:29:28;;;;;;;;;;;20.10;71.20;;;;;;6186739;23;19920;-95
2023/06/26 00:31:54;;;;;;;;;;;20.00;71.50;;;;;;6189276;23;19920;-93
2023/06/26 00:34:20;;;;;;;;;;;20.00;71.50;;;;;;6215587;23;19931;-95
2023/06/26 00:36:45;;;;;;;;;;;20.00;71.50;;;;;;6237587;23;20058;-92
2023/06/26 00:39:11;;;;;;;;;;;20.00;71.80;;;;;;6243276;23;19920;-94
2023/06/26 00:41:37;;;;;;;;;;;20.00;71.70;;;;;;6243945;22;19923;-95
2023/06/26 00:44:04;;;;;;;;;;;20.00;71.60;;;;;;6241645;23;19986;-95
2023/06/26 00:46:29;;;;;;;;;;;20.00;71.50;;;;;;6239842;23;20350;-92
2023/06/26 00:48:55;;;;;;;;;;;20.00;71.70;;;;;;6240245;23;19973;-95
2023/06/26 00:51:21;;;;;;;;;;;20.00;71.60;;;;;;6243593;23;19920;-94
2023/06/26 00:53:50;;;;;;;;;;;20.00;71.50;;;;;;6192215;23;19927;-94
2023/06/26 00:56:17;;;;;;;;;;;20.00;71.60;;;;;;6241654;23;19924;-92
2023/06/26 00:58:43;;;;;;;;;;;20.00;71.50;;;;;;6236748;23;19920;-94
2023/06/26 01:01:08;;;;;;;;;;;20.00;71.50;;;;;;6243044;22;19973;-95
2023/06/26 01:03:35;;;;;;;;;;;19.90;71.70;;;;;;6242438;22;20392;-95
2023/06/26 01:06:01;;;;;;;;;;;19.90;71.70;;;;;;6244125;23;19999;-94
2023/06/26 01:08:27;;;;;;;;;;;19.90;71.70;;;;;;6209085;23;20372;-93
2023/06/26 01:10:53;;;;;;;;;;;19.80;71.80;;;;;;6243285;23;19955;-95
2023/06/26 01:13:19;;;;;;;;;;;19.80;71.80;;;;;;6241784;22;19920;-95
2023/06/26 01:15:45;;;;;;;;;;;19.80;71.80;;;;;;6243584;23;19919;-93
2023/06/26 01:18:15;;;;;;;;;;;19.80;72.00;;;;;;6234484;23;19926;-94
2023/06/26 01:20:41;;;;;;;;;;;19.80;71.80;;;;;;6218950;23;19927;-94
2023/06/26 01:23:09;;;;;;;;;;;19.80;71.50;;;;;;6216430;23;19923;-93
2023/06/26 01:25:41;;;;;;;;;;;19.80;71.60;;;;;;6243905;23;19990;-94
2023/06/26 01:28:08;;;;;;;;;;;19.90;71.60;;;;;;6233485;23;20391;-94
2023/06/26 01:30:34;;;;;;;;;;;19.80;71.70;;;;;;6243613;23;19919;-96
2023/06/26 01:33:01;;;;;;;;;;;19.90;71.20;;;;;;6229545;22;19928;-95
2023/06/26 01:35:27;;;;;;;;;;;19.90;71.50;;;;;;6212819;23;20668;-93
2023/06/26 01:37:53;;;;;;;;;;;20.00;71.10;;;;;;6204920;23;19927;-93
2023/06/26 01:40:18;;;;;;;;;;;20.00;71.10;;;;;;6212151;23;19947;-94
2023/06/26 01:42:44;;;;;;;;;;;20.10;70.60;;;;;;6210950;23;20402;-94
2023/06/26 01:45:15;;;;;;;;;;;20.30;70.60;;;;;;6163142;23;19932;-94
2023/06/26 01:47:44;;;;;;;;;;;20.30;70.50;;;;;;6203355;23;19920;-92
2023/06/26 01:50:11;;;;;;;;;;;20.30;70.30;;;;;;6213141;23;19927;-94
2023/06/26 01:52:48;;;;;;;;;;;20.40;70.40;;;;;;6211853;23;19920;-94
2023/06/26 01:55:17;;;;;;;;;;;20.40;70.30;;;;;;6212672;23;19920;-94
2023/06/26 01:57:44;;;;;;;;;;;20.40;70.30;;;;;;6203256;23;19920;-92
2023/06/26 02:00:11;;;;;;;;;;;20.40;70.20;;;;;;6212915;23;19931;-94
2023/06/26 02:02:37;;;;;;;;;;;20.50;70.10;;;;;;6210638;22;19920;-94
2023/06/26 02:05:02;;;;;;;;;;;20.50;70.40;;;;;;6213294;23;19970;-92
2023/06/26 02:07:28;;;;;;;;;;;20.40;70.40;;;;;;6153302;23;20265;-96
2023/06/26 02:09:54;;;;;;;;;;;20.40;70.30;;;;;;6212432;23;19924;-95
2023/06/26 02:12:19;;;;;;;;;;;20.40;70.50;;;;;;6211482;22;19924;-95
2023/06/26 02:14:45;;;;;;;;;;;20.40;70.60;;;;;;6212990;23;19947;-93
2023/06/26 02:17:11;;;;;;;;;;;20.30;70.40;;;;;;6189710;23;19958;-94
2023/06/26 02:19:36;;;;;;;;;;;20.30;70.70;;;;;;6212736;23;19989;-95
2023/06/26 02:22:02;;;;;;;;;;;20.30;70.70;;;;;;6210651;22;19927;-93
2023/06/26 02:24:29;;;;;;;;;;;20.30;70.90;;;;;;6213195;23;19931;-95
2023/06/26 02:26:56;;;;;;;;;;;20.20;71.10;;;;;;6205333;23;19922;-92
2023/06/26 02:29:22;;;;;;;;;;;20.10;71.00;;;;;;6211155;23;20275;-95
2023/06/26 02:31:48;;;;;;;;;;;20.10;71.30;;;;;;6213077;23;19978;-95
2023/06/26 02:34:14;;;;;;;;;;;20.10;71.00;;;;;;6160873;23;20507;-96
2023/06/26 02:37:05;;;;;;;;;;;;;;;;;;;;;
2023/06/26 02:39:51;;;;;;;;;;;20.00;71.20;;;;;;6193312;23;19958;-94
2023/06/26 02:42:16;;;;;;;;;;;20.00;70.80;;;;;;6160746;23;19920;-94
2023/06/26 02:44:42;;;;;;;;;;;20.00;70.70;;;;;;6162359;23;19994;-94
2023/06/26 02:47:08;;;;;;;;;;;20.00;70.50;;;;;;6203538;23;20604;-94
2023/06/26 02:49:33;;;;;;;;;;;20.10;70.40;;;;;;6187265;23;20338;-94
2023/06/26 02:51:59;;;;;;;;;;;20.10;70.30;;;;;;6187702;23;19920;-95
2023/06/26 02:54:24;;;;;;;;;;;20.10;70.30;;;;;;6185245;23;19994;-94
2023/06/26 02:56:50;;;;;;;;;;;20.10;70.50;;;;;;6180432;23;19920;-94
2023/06/26 02:59:16;;;;;;;;;;;20.10;70.50;;;;;;6185024;23;19920;-94
2023/06/26 03:01:41;;;;;;;;;;;20.10;70.30;;;;;;6187400;23;19920;-94
2023/06/26 03:04:08;;;;;;;;;;;20.10;71.00;;;;;;6185629;23;20007;-95
2023/06/26 03:06:33;;;;;;;;;;;20.00;70.90;;;;;;6182447;23;20576;-93
2023/06/26 03:08:59;;;;;;;;;;;20.00;71.20;;;;;;6184041;23;19923;-95
2023/06/26 03:11:25;;;;;;;;;;;20.00;71.20;;;;;;6187419;23;19924;-94
2023/06/26 03:13:50;;;;;;;;;;;19.90;71.20;;;;;;6160505;23;20334;-94
2023/06/26 03:16:16;;;;;;;;;;;19.90;71.60;;;;;;6209756;23;19920;-93
2023/06/26 03:18:44;;;;;;;;;;;19.90;71.50;;;;;;6181801;23;19924;-92
2023/06/26 03:21:10;;;;;;;;;;;19.90;71.60;;;;;;6164680;23;19974;-93
2023/06/26 03:23:35;;;;;;;;;;;19.80;71.70;;;;;;6187820;23;19920;-94
2023/06/26 03:26:01;;;;;;;;;;;19.80;72.00;;;;;;6188558;23;19920;-94
2023/06/26 03:28:27;;;;;;;;;;;19.80;71.90;;;;;;6180095;23;19946;-94
2023/06/26 03:30:52;;;;;;;;;;;19.70;71.70;;;;;;6188941;23;19974;-93
2023/06/26 03:33:18;;;;;;;;;;;19.70;71.90;;;;;;6197592;23;20258;-94
2023/06/26 03:35:44;;;;;;;;;;;19.70;72.00;;;;;;6214272;23;19930;-92
2023/06/26 03:38:10;;;;;;;;;;;19.70;72.50;;;;;;6206109;23;20002;-94
2023/06/26 03:40:35;;;;;;;;;;;19.70;72.20;;;;;;6214429;23;19969;-94
2023/06/26 03:43:01;;;;;;;;;;;19.70;72.40;;;;;;6212558;23;19927;-94
2023/06/26 03:45:26;;;;;;;;;;;19.70;72.30;;;;;;6213604;23;19920;-94
2023/06/26 03:47:55;;;;;;;;;;;19.70;72.40;;;;;;6204142;23;19920;-96
2023/06/26 03:50:30;;;;;;;;;;;19.80;72.50;;;;;;6194879;23;19970;-95
2023/06/26 03:52:56;;;;;;;;;;;19.80;72.70;;;;;;6181145;23;20357;-94
2023/06/26 03:55:23;;;;;;;;;;;19.90;72.80;;;;;;6189010;23;19931;-95
2023/06/26 03:57:53;;;;;;;;;;;19.90;72.80;;;;;;6189849;23;19943;-94
2023/06/26 04:00:44;;;;;;;;;;;19.90;72.80;;;;;;6167132;23;19944;-95
2023/06/26 04:03:11;;;;;;;;;;;20.00;73.00;;;;;;6187803;23;19924;-91
2023/06/26 04:05:41;;;;;;;;;;;20.00;72.80;;;;;;6164434;23;19920;-91
2023/06/26 04:08:13;;;;;;;;;;;20.00;72.80;;;;;;6139110;23;19998;-92
2023/06/26 04:11:06;;;;;;;;;;;20.00;72.90;;;;;;6177368;23;19920;-91
2023/06/26 04:13:58;;;;;;;;;;;20.00;73.10;;;;;;6176132;23;19950;-91
2023/06/26 04:16:29;;;;;;;;;;;20.00;73.30;;;;;;6182929;23;19920;-92
2023/06/26 04:19:11;;;;;;;;;;;20.00;73.20;;;;;;6207655;23;19927;-91
2023/06/26 04:21:54;;;;;;;;;;;20.00;73.10;;;;;;6212893;23;19942;-92
2023/06/26 04:24:20;;;;;;;;;;;20.10;73.20;;;;;;6145591;23;19944;-89
2023/06/26 04:27:08;;;;;;;;;;;;;;;;;;;;;
2023/06/26 04:29:57;;;;;;;;;;;20.30;73.30;;;;;;6187763;23;19919;-92
2023/06/26 04:32:24;;;;;;;;;;;20.30;73.40;;;;;;6197204;23;19930;-90
2023/06/26 04:34:53;;;;;;;;;;;20.30;73.70;;;;;;6213095;23;19924;-90
2023/06/26 04:37:19;;;;;;;;;;;20.30;73.80;;;;;;6205174;23;20430;-90
2023/06/26 04:39:44;;;;;;;;;;;20.40;73.80;;;;;;6213178;23;20294;-92
2023/06/26 04:42:12;;;;;;;;;;;20.40;74.00;;;;;;6210379;23;19924;-94
2023/06/26 04:44:43;;;;;;;;;;;20.40;74.10;;;;;;6212341;23;19967;-92
2023/06/26 04:47:09;;;;;;;;;;;20.40;74.30;;;;;;6190701;23;19915;-91
2023/06/26 04:49:45;;;;;;;;;;;20.30;74.30;;;;;;6212302;23;19978;-91
2023/06/26 04:52:28;;;;;;;;;;;20.30;74.50;;;;;;6133175;23;20335;-92
2023/06/26 04:55:14;;;;;;;;;;;20.30;74.60;;;;;;6163873;23;19924;-91
2023/06/26 04:57:42;;;;;;;;;;;20.30;74.60;;;;;;6155047;23;19923;-96
2023/06/26 05:00:10;;;;;;;;;;;20.10;74.70;;;;;;6186855;23;19920;-92
2023/06/26 05:03:02;;;;;;;;;;;20.10;75.00;;;;;;6194495;23;20323;-92
2023/06/26 05:05:28;;;;;;;;;;;20.00;75.10;;;;;;6183273;23;20003;-91
2023/06/26 05:08:06;;;;;;;;;;;20.00;75.30;;;;;;6199172;23;19947;-93
2023/06/26 05:13:35;;;;;;;;;;;19.80;75.60;;;;;;6172617;23;19919;-92
2023/06/26 05:16:00;;;;;;;;;;;19.70;75.70;;;;;;6159128;23;20347;-90
2023/06/26 05:19:10;;;;;;;;;;;19.70;75.70;;;;;;6193788;23;19923;-92
2023/06/26 05:21:42;;;;;;;;;;;19.50;76.00;;;;;;6204423;23;20040;-93
2023/06/26 05:24:09;;;;;;;;;;;19.50;76.10;;;;;;6206482;23;19928;-93
2023/06/26 05:26:50;;;;;;;;;;;19.50;76.00;;;;;;6204506;23;19923;-92
2023/06/26 05:29:19;;;;;;;;;;;19.40;75.90;;;;;;6193081;23;19920;-90
2023/06/26 05:31:45;;;;;;;;;;;19.40;75.90;;;;;;6208389;23;20347;-90
2023/06/26 05:34:28;;;;;;;;;;;19.30;76.10;;;;;;6193455;23;19920;-94
2023/06/26 05:37:03;;;;;;;;;;;19.20;76.50;;;;;;6155817;23;19939;-93
2023/06/26 05:39:29;;;;;;;;;;;19.20;76.80;;;;;;6161345;23;19970;-92
2023/06/26 05:41:56;;;;;;;;;;;19.10;76.90;;;;;;6209724;23;19920;-91
2023/06/26 05:44:28;;;;;;;;;;;19.10;77.10;;;;;;6209611;23;19920;-92
2023/06/26 05:46:53;;;;;;;;;;;19.00;77.20;;;;;;6203612;23;19916;-90
2023/06/26 05:49:19;;;;;;;;;;;19.00;77.50;;;;;;6184203;23;19920;-91
2023/06/26 05:51:45;;;;;;;;;;;19.00;77.50;;;;;;6210918;23;19920;-91
2023/06/26 05:54:33;;;;;;;;;;;18.90;77.40;;;;;;6209233;23;20258;-91
2023/06/26 05:56:59;;;;;;;;;;;18.90;77.60;;;;;;6203423;23;19986;-90
2023/06/26 05:59:26;;;;;;;;;;;18.90;77.50;;;;;;6181428;23;19924;-94
2023/06/26 06:01:52;;;;;;;;;;;19.00;77.40;;;;;;6210679;23;20003;-92
2023/06/26 06:04:28;;;;;;;;;;;19.00;77.30;;;;;;6209290;23;19970;-90
2023/06/26 06:06:54;;;;;;;;;;;19.00;77.10;;;;;;6152672;23;19916;-89
2023/06/26 06:09:20;;;;;;;;;;;19.00;77.20;;;;;;6209519;23;19924;-88
2023/06/26 06:11:48;;;;;;;;;;;19.00;76.90;;;;;;6185993;23;19990;-93
2023/06/26 06:14:14;;;;;;;;;;;19.10;76.50;;;;;;6211660;23;19919;-92
2023/06/26 06:16:46;;;;;;;;;;;19.10;76.00;;;;;;6209479;23;20605;-94
2023/06/26 06:19:17;;;;;;;;;;;19.10;76.30;;;;;;6098712;23;19948;-94
2023/06/26 06:21:43;;;;;;;;;;;19.30;75.70;;;;;;6186529;23;20015;-94
2023/06/26 06:24:37;;;;;;;;;;;19.30;75.50;;;;;;6215953;23;19920;-96
2023/06/26 06:30:40;;;;;;;;;;;19.50;75.20;;;;;;6114791;23;19921;-95
2023/06/26 06:33:06;;;;;;;;;;;19.90;73.80;;;;;;6096041;23;19951;-95
2023/06/26 06:39:14;;;;;;;;;;;20.00;73.00;;;;;;6149693;23;19924;-94
2023/06/26 06:42:12;;;;;;;;;;;20.00;71.10;;;;;;6242432;23;19920;-96
2023/06/26 06:44:40;;;;;;;;;;;20.00;71.40;;;;;;6201724;23;19920;-94
2023/06/26 06:47:18;;;;;;;;;;;19.80;70.90;;;;;;6206484;23;19916;-94
2023/06/26 06:50:25;;;;;;;;;;;19.70;70.90;;;;;;6220198;23;19920;-96
2023/06/26 06:52:51;;;;;;;;;;;19.90;71.70;;;;;;6048114;23;19921;-93
2023/06/26 06:55:46;;;;;;;;;;;20.10;71.20;;;;;;6077107;23;19927;-96
2023/06/26 06:58:23;;;;;;;;;;;20.10;70.00;;;;;;6127052;23;20297;-96
2023/06/26 07:00:51;;;;;;;;;;;20.20;69.50;;;;;;6215151;23;19964;-95
2023/06/26 07:03:21;;;;;;;;;;;20.00;69.10;;;;;;6164513;23;20338;-96
2023/06/26 07:05:47;;;;;;;;;;;20.10;68.70;;;;;;6219513;23;19920;-96
2023/06/26 07:08:13;;;;;;;;;;;20.10;69.30;;;;;;6186139;23;19927;-96
2023/06/26 07:10:38;;;;;;;;;;;20.30;69.30;;;;;;6164956;23;20013;-95
2023/06/26 07:16:43;;;;;;;;;;;20.10;69.40;;;;;;6101336;23;20425;-96
2023/06/26 07:19:09;;;;;;;;;;;20.30;69.60;;;;;;6070725;23;19968;-94
2023/06/26 07:21:37;;;;;;;;;;;20.40;69.50;;;;;;6067782;23;19921;-94
2023/06/26 07:26:55;;;;;;;;;;;20.10;69.30;;;;;;6178956;23;19967;-93
2023/06/26 07:29:23;;;;;;;;;;;20.30;69.40;;;;;;6155010;22;19919;-95
2023/06/26 07:31:49;;;;;;;;;;;20.30;68.90;;;;;;6184077;23;19926;-95
2023/06/26 07:34:18;;;;;;;;;;;20.20;68.90;;;;;;6166761;23;19915;-96
2023/06/26 07:36:56;;;;;;;;;;;20.10;69.00;;;;;;6204913;23;19998;-96
2023/06/26 07:39:25;;;;;;;;;;;20.20;68.80;;;;;;6213067;23;20215;-96
2023/06/26 07:42:00;;;;;;;;;;;20.30;67.70;;;;;;6160319;23;19928;-96
2023/06/26 07:44:29;;;;;;;;;;;20.30;67.70;;;;;;6156090;23;19923;-96
2023/06/26 07:46:55;;;;;;;;;;;20.50;67.50;;;;;;6205278;23;20564;-96
2023/06/26 07:53:06;;;;;;;;;;;20.50;67.60;;;;;;6081567;23;19923;-96
2023/06/26 07:56:10;;;;;;;;;;;20.50;66.70;;;;;;6192196;23;19923;-96
2023/06/26 07:58:57;;;;;;;;;;;20.50;67.10;;;;;;6199612;23;19923;-95
2023/06/26 08:01:26;;;;;;;;;;;20.50;67.50;;;;;;6203981;23;20376;-96
2023/06/26 08:03:51;;;;;;;;;;;20.20;67.20;;;;;;6155646;23;19934;-95
2023/06/26 08:10:15;;;;;;;;;;;20.30;68.00;;;;;;5998280;23;19958;-96
2023/06/26 08:16:27;;;;;;;;;;;20.50;67.20;;;;;;6051072;23;20205;-93
2023/06/26 08:22:06;;;;;;;;;;;20.30;68.70;;;;;;6059670;23;19922;-96
2023/06/26 08:24:39;;;;;;;;;;;20.30;69.10;;;;;;6059505;23;19932;-95
2023/06/26 08:27:23;;;;;;;;;;;20.40;67.90;;;;;;6101230;23;19920;-93
2023/06/26 08:29:54;;;;;;;;;;;20.30;68.50;;;;;;6157734;23;19924;-92
2023/06/26 08:32:20;;;;;;;;;;;20.30;67.80;;;;;;6138347;23;20026;-91
2023/06/26 08:35:10;;;;;;;;;;;20.10;67.60;;;;;;6163356;23;19955;-93
2023/06/26 08:37:48;;;;;;;;;;;20.00;68.30;;;;;;6200397;23;20465;-94
2023/06/26 08:40:16;;;;;;;;;;;20.00;68.20;;;;;;6204652;23;19942;-92
2023/06/26 08:42:42;;;;;;;;;;;19.90;67.90;;;;;;6201579;23;19924;-92
2023/06/26 08:45:11;;;;;;;;;;;20.00;68.10;;;;;;6202703;23;19954;-93
2023/06/26 08:48:03;;;;;;;;;;;20.00;69.00;;;;;;6195564;23;19919;-94
2023/06/26 08:57:05;;;;;;;;;;;20.30;67.50;;;;;;6086283;23;19927;-94
2023/06/26 08:59:31;;;;;;;;;;;20.20;67.30;;;;;;6093810;23;19932;-93
2023/06/26 09:02:02;;;;;;;;;;;20.10;67.10;;;;;;6121808;23;20248;-96
2023/06/26 09:04:32;;;;;;;;;;;20.10;67.90;;;;;;6122453;23;20326;-94
2023/06/26 09:07:01;;;;;;;;;;;20.30;66.60;;;;;;6118169;23;19960;-96
2023/06/26 09:09:30;;;;;;;;;;;20.20;66.20;;;;;;6092619;23;19930;-93
2023/06/26 09:12:01;;;;;;;;;;;20.30;67.10;;;;;;6126207;23;20003;-94
2023/06/26 09:21:41;;;;;;;;;;;;;;;;;;;;;
2023/06/26 09:25:13;;;;;;;;;;;20.40;67.70;;;;;;5961404;23;19921;-95
2023/06/26 09:37:53;;;;;;;;;;;20.50;66.10;;;;;;5863773;24;19962;-95
2023/06/26 09:40:39;;;;;;;;;;;20.50;64.80;;;;;;5967840;23;19977;-95
2023/06/26 09:43:35;;;;;;;;;;;20.40;65.00;;;;;;6094293;23;20035;-94
2023/06/26 09:46:26;;;;;;;;;;;20.20;65.40;;;;;;6091265;23;20328;-93
2023/06/26 09:49:18;;;;;;;;;;;20.10;65.70;;;;;;6029990;23;19960;-93
2023/06/26 09:51:44;;;;;;;;;;;20.20;65.90;;;;;;6113017;23;19931;-96
2023/06/26 09:54:12;;;;;;;;;;;20.30;65.70;;;;;;6081265;23;19957;-93
2023/06/26 10:09:24;;;;;;;;;;;20.30;65.30;;;;;;6129406;23;20626;-96
2023/06/26 10:12:14;;;;;;;;;;;20.50;65.40;;;;;;6180560;23;20473;-95
2023/06/26 10:14:49;;;;;;;;;;;20.60;64.60;;;;;;6047161;23;19924;-95
2023/06/26 10:24:11;;;;;;;;;;;20.60;64.30;;;;;;5993371;23;19929;-93
2023/06/26 10:27:12;;;;;;;;;;;20.60;64.00;;;;;;6034239;23;19933;-95
2023/06/26 10:30:17;;;;;;;;;;;20.50;64.10;;;;;;6003977;23;19921;-94
2023/06/26 10:32:54;;;;;;;;;;;20.50;64.70;;;;;;6040879;23;19921;-96
2023/06/26 10:35:27;;;;;;;;;;;20.40;64.60;;;;;;6030003;23;20251;-95
2023/06/26 10:38:29;;;;;;;;;;;20.40;64.80;;;;;;6204011;23;19920;-92
2023/06/26 10:41:10;;;;;;;;;;;20.60;65.00;;;;;;6157166;23;19927;-96
2023/06/26 10:47:32;;;;;;;;;;;20.50;64.20;;;;;;6115199;23;19921;-96
2023/06/26 10:50:23;;;;;;;;;;;20.60;64.30;;;;;;6153330;23;19923;-92
2023/06/26 10:57:00;;;;;;;;;;;20.60;64.20;;;;;;6174457;23;20420;-94
2023/06/26 10:59:23;;;;;;;;;;;20.50;62.40;;;;;;6145361;23;19928;-96
2023/06/26 11:02:23;;;;;;;;;;;20.50;63.00;;;;;;6157388;23;19942;-94
2023/06/26 11:04:53;;;;;;;;;;;20.60;62.60;;;;;;6008869;23;19928;-96
2023/06/26 11:07:37;;;;;;;;;;;;;;;;;;;;;
2023/06/26 11:10:46;;;;;;;;;;;20.60;62.20;;;;;;6078397;23;19933;-92
2023/06/26 11:23:07;;;;;;;;;;;20.60;62.70;;;;;;6156428;23;19927;-96
2023/06/26 11:29:19;;;;;;;;;;;20.50;62.80;;;;;;6067310;23;19916;-96
2023/06/26 11:32:11;;;;;;;;;;;20.50;63.40;;;;;;6041393;23;20032;-93
2023/06/26 11:38:05;;;;;;;;;;;20.80;62.50;;;;;;6069269;23;19928;-93
2023/06/26 11:41:14;;;;;;;;;;;20.50;62.10;;;;;;6149277;23;19923;-96
2023/06/26 11:44:15;;;;;;;;;;;20.30;62.70;;;;;;6214315;23;20000;-95
2023/06/26 11:47:34;;;;;;;;;;;20.50;63.60;;;;;;5986952;23;20004;-95
2023/06/26 11:50:17;;;;;;;;;;;20.50;62.80;;;;;;6069596;23;19925;-96
2023/06/26 11:52:53;;;;;;;;;;;20.50;62.90;;;;;;6050307;23;19989;-95
2023/06/26 11:55:45;;;;;;;;;;;20.60;61.50;;;;;;6051004;23;20004;-93
2023/06/26 11:58:54;;;;;;;;;;;;;;;;;;;;;
2023/06/26 12:01:17;;;;;;;;;;;20.60;61.50;;;;;;6206345;23;19930;-94
2023/06/26 12:03:56;;;;;;;;;;;20.50;61.90;;;;;;6145021;23;19954;-94
2023/06/26 12:06:59;;;;;;;;;;;;;;;;;;;;;
2023/06/26 12:09:45;;;;;;;;;;;20.30;62.50;;;;;;6163417;23;19924;-95
2023/06/26 12:16:18;;;;;;;;;;;20.30;61.60;;;;;;6003991;23;19922;-94
2023/06/26 12:29:20;;;;;;;;;;;20.50;61.10;;;;;;5930106;24;19939;-92
2023/06/26 12:32:25;;;;;;;;;;;20.50;60.50;;;;;;5913411;24;20617;-96
2023/06/26 12:35:47;;;;;;;;;;;20.10;61.50;;;;;;5876816;24;19944;-95
2023/06/26 12:38:20;;;;;;;;;;;20.10;61.00;;;;;;5871356;24;19914;-94
2023/06/26 12:43:45;;;;;;;;;;;20.10;61.00;;;;;;5921781;24;19922;-94
2023/06/26 12:46:19;;;;;;;;;;;20.10;61.30;;;;;;5926761;24;19922;-94
2023/06/26 12:52:24;;;;;;;;;;;20.10;61.20;;;;;;6078042;23;19997;-95
2023/06/26 12:55:14;;;;;;;;;;;20.30;61.70;;;;;;5985546;23;20027;-96
2023/06/26 13:01:34;;;;;;;;;;;20.30;61.90;;;;;;6041101;23;19933;-94
2023/06/26 13:04:12;;;;;;;;;;;;;;;;;;;;;
2023/06/26 13:13:57;;;;;;;;;;;20.50;61.90;;;;;;6021182;23;19921;-95
2023/06/26 13:17:34;;;;;;;;;;;;;;;;;;;;;
2023/06/26 13:30:58;;;;;;;;;;;20.30;61.10;;;;;;5993537;23;20038;-95
2023/06/26 14:15:06;;;;;;;;;;;20.00;64.70;;;;;;5884734;24;19949;-96
2023/06/26 14:18:27;;;;;;;;;;;;;;;;;;;;;
2023/06/26 14:24:47;;;;;;;;;;;20.00;65.30;;;;;;5871064;24;19922;-95
2023/06/26 14:38:39;;;;;;;;;;;19.70;65.30;;;;;;5777044;24;19920;-90
2023/06/26 14:48:45;;;;;;;;;;;;;;;;;;;;;
2023/06/26 14:58:02;;;;;;;;;;;19.20;65.20;;;;;;5886834;24;20650;-93
2023/06/26 15:00:33;;;;;;;;;;;19.10;64.80;;;;;;5915325;24;20327;-96
2023/06/26 15:06:27;;;;;;;;;;;19.00;65.10;;;;;;5952614;24;20413;-95
2023/06/26 15:16:11;;;;;;;;;;;18.90;64.40;;;;;;5930108;24;19983;-96
2023/06/26 15:25:25;;;;;;;;;;;19.00;63.90;;;;;;5923911;24;19923;-93
2023/06/26 15:27:59;;;;;;;;;;;19.00;63.90;;;;;;5885641;24;19946;-96
2023/06/26 15:44:12;;;;;;;;;;;19.70;60.90;;;;;;5894362;23;19951;-94
2023/06/26 15:51:07;;;;;;;;;;;20.00;60.20;;;;;;5889646;24;19957;-95
2023/06/26 15:53:36;;;;;;;;;;;20.10;60.50;;;;;;6116926;23;19920;-94
2023/06/26 16:00:16;;;;;;;;;;;20.00;61.00;;;;;;6070023;23;19932;-95
2023/06/26 16:02:48;;;;;;;;;;;20.20;61.20;;;;;;6135405;23;19924;-96
2023/06/26 16:09:14;;;;;;;;;;;20.30;60.20;;;;;;5932871;24;19975;-92
2023/06/26 16:18:21;;;;;;;;;;;20.40;59.70;;;;;;5918039;24;19907;-96
2023/06/26 16:20:47;;;;;;;;;;;20.30;59.70;;;;;;5994100;23;19922;-94
2023/06/26 16:23:13;;;;;;;;;;;20.10;60.20;;;;;;5986388;23;19997;-95
2023/06/26 16:29:03;;;;;;;;;;;20.10;59.60;;;;;;5999778;23;19960;-96
2023/06/26 16:31:32;;;;;;;;;;;20.20;59.30;;;;;;5974728;23;19997;-92
2023/06/26 16:37:35;;;;;;;;;;;20.30;60.00;;;;;;5923967;23;20007;-92
2023/06/26 16:40:03;;;;;;;;;;;20.10;59.10;;;;;;5874683;24;20838;-95
2023/06/26 16:42:35;;;;;;;;;;;20.00;59.20;;;;;;5991975;23;19930;-95
2023/06/26 16:45:04;;;;;;;;;;;20.00;58.70;;;;;;6015934;23;19946;-94
2023/06/26 16:47:39;;;;;;;;;;;19.90;59.70;;;;;;6017515;23;19977;-96
2023/06/26 16:50:08;;;;;;;;;;;19.80;60.30;;;;;;6143933;23;19921;-96
2023/06/26 16:52:36;;;;;;;;;;;19.90;60.50;;;;;;6184714;22;20278;-93
2023/06/26 16:55:08;;;;;;;;;;;19.90;59.60;;;;;;6243168;22;19908;-95
2023/06/26 16:57:34;;;;;;;;;;;19.90;59.50;;;;;;6225616;22;19903;-94
2023/06/26 17:00:01;;;;;;;;;;;19.90;58.20;;;;;;6285316;22;19931;-94
2023/06/26 17:02:27;;;;;;;;;;;19.90;56.80;;;;;;6212177;22;20189;-94
2023/06/26 17:04:59;;;;;;;;;;;19.90;57.20;;;;;;6200339;23;19951;-96
2023/06/26 17:07:29;;;;;;;;;;;19.80;57.00;;;;;;6180658;22;19963;-92
2023/06/26 17:10:20;;;;;;;;;;;19.70;56.60;;;;;;6225477;23;19983;-94
2023/06/26 17:12:46;;;;;;;;;;;19.70;56.90;;;;;;6183917;23;19947;-92
2023/06/26 17:18:22;;;;;;;;;;;19.70;57.10;;;;;;6223509;22;19919;-93
2023/06/26 17:20:48;;;;;;;;;;;19.60;57.30;;;;;;6214604;23;19930;-94
2023/06/26 17:23:14;;;;;;;;;;;19.60;57.80;;;;;;6187463;23;19919;-95
2023/06/26 17:25:39;;;;;;;;;;;19.50;57.20;;;;;;6214246;23;20349;-96
2023/06/26 17:28:35;;;;;;;;;;;;;;;;;;;;;
2023/06/26 17:31:04;;;;;;;;;;;19.40;58.30;;;;;;6152457;23;19924;-92
2023/06/26 17:33:34;;;;;;;;;;;19.30;58.70;;;;;;6204298;23;19935;-93
2023/06/26 17:35:59;;;;;;;;;;;19.30;59.00;;;;;;6213443;23;19924;-92
2023/06/26 17:38:29;;;;;;;;;;;19.30;59.30;;;;;;6207951;23;19959;-94
2023/06/26 17:41:16;;;;;;;;;;;19.20;59.70;;;;;;6220108;23;20330;-96
2023/06/26 17:43:48;;;;;;;;;;;19.20;59.80;;;;;;6175017;23;19920;-93
2023/06/26 17:46:24;;;;;;;;;;;19.10;60.40;;;;;;6213940;23;19920;-95
2023/06/26 17:49:18;;;;;;;;;;;19.00;60.50;;;;;;6164040;23;19950;-96
2023/06/26 17:51:43;;;;;;;;;;;19.00;60.30;;;;;;6217006;23;19931;-92
2023/06/26 17:54:09;;;;;;;;;;;18.90;60.50;;;;;;6185096;23;19969;-94
2023/06/26 17:56:35;;;;;;;;;;;18.80;60.80;;;;;;6183368;23;20058;-92
2023/06/26 17:59:03;;;;;;;;;;;18.70;61.30;;;;;;6209856;23;19951;-92
2023/06/26 18:01:36;;;;;;;;;;;18.60;61.40;;;;;;6213592;23;20476;-92
2023/06/26 18:04:04;;;;;;;;;;;18.60;60.90;;;;;;6211749;23;19936;-94
2023/06/26 18:06:42;;;;;;;;;;;18.50;61.50;;;;;;6187586;23;19915;-93
2023/06/26 18:09:15;;;;;;;;;;;18.50;61.60;;;;;;6211368;23;19999;-96
2023/06/26 18:11:59;;;;;;;;;;;18.40;61.30;;;;;;6188259;23;19924;-94
2023/06/26 18:14:34;;;;;;;;;;;18.30;61.60;;;;;;6210714;23;19924;-92
2023/06/26 18:17:00;;;;;;;;;;;18.30;62.20;;;;;;6207199;23;19924;-93
2023/06/26 18:19:26;;;;;;;;;;;18.20;62.60;;;;;;6188208;23;19924;-95
2023/06/26 18:21:51;;;;;;;;;;;18.10;62.80;;;;;;6191210;23;20297;-95
2023/06/26 18:24:21;;;;;;;;;;;18.10;62.70;;;;;;6188414;23;19919;-94
2023/06/26 18:26:52;;;;;;;;;;;18.00;62.80;;;;;;6210103;23;19998;-93
2023/06/26 18:29:21;;;;;;;;;;;18.00;62.90;;;;;;6216076;23;19919;-96
2023/06/26 18:31:50;;;;;;;;;;;17.90;63.60;;;;;;6194655;23;19923;-94
2023/06/26 18:34:19;;;;;;;;;;;17.80;64.00;;;;;;6162435;22;19958;-92
2023/06/26 18:36:50;;;;;;;;;;;17.80;64.20;;;;;;6185926;23;19920;-95
2023/06/26 18:39:18;;;;;;;;;;;17.80;64.60;;;;;;6190936;23;19924;-94
2023/06/26 18:41:49;;;;;;;;;;;17.70;64.40;;;;;;6191265;23;19920;-91
2023/06/26 18:44:15;;;;;;;;;;;17.60;64.60;;;;;;6176401;23;20518;-93
2023/06/26 18:46:44;;;;;;;;;;;17.60;64.70;;;;;;6210720;23;19915;-90
2023/06/26 18:49:12;;;;;;;;;;;17.50;64.80;;;;;;6210891;23;19950;-94
2023/06/26 18:51:38;;;;;;;;;;;17.50;64.70;;;;;;6190498;23;19926;-90
2023/06/26 18:54:22;;;;;;;;;;;17.50;65.00;;;;;;6201629;22;19951;-91
2023/06/26 18:57:20;;;;;;;;;;;17.50;65.20;;;;;;6234274;23;20018;-93
2023/06/26 19:02:47;;;;;;;;;;;17.40;66.00;;;;;;6179435;23;19924;-92
2023/06/26 19:08:42;;;;;;;;;;;17.20;65.70;;;;;;6190599;22;19930;-92
2023/06/26 19:11:17;;;;;;;;;;;17.20;65.60;;;;;;6215243;23;20618;-93
2023/06/26 19:13:49;;;;;;;;;;;17.20;65.50;;;;;;6202910;22;19923;-92
2023/06/26 19:16:17;;;;;;;;;;;17.20;66.00;;;;;;6189431;23;20317;-93
2023/06/26 19:18:46;;;;;;;;;;;17.10;66.10;;;;;;6170683;23;19949;-90
2023/06/26 19:21:11;;;;;;;;;;;17.00;66.20;;;;;;6215176;23;19923;-91
2023/06/26 19:23:40;;;;;;;;;;;17.00;66.40;;;;;;6181212;22;19961;-91
2023/06/26 19:26:09;;;;;;;;;;;17.00;66.40;;;;;;6235027;23;19923;-91
2023/06/26 19:28:50;;;;;;;;;;;;;;;;;;;;;
2023/06/26 19:31:22;;;;;;;;;;;16.80;66.80;;;;;;6218935;23;19975;-91
2023/06/26 19:37:17;;;;;;;;;;;16.80;67.00;;;;;;6181261;23;19922;-93
2023/06/26 19:39:42;;;;;;;;;;;16.70;67.10;;;;;;6219121;23;19959;-95
2023/06/26 19:42:17;;;;;;;;;;;16.70;67.00;;;;;;6199754;22;19927;-95
2023/06/26 19:44:45;;;;;;;;;;;16.70;67.00;;;;;;6190213;23;19959;-93
2023/06/26 19:47:35;;;;;;;;;;;;;;;;;;;;;